Franklin Square, New York
Current Conditions -  °F | °C
As of 4:51 PM on Monday 26 Jan 2015 (Local Time) from KJFK Reporting Station
Light Snow Light Snow  
Wind Chill: 11°   Ceiling: 2800
Heat Index: 26°   Visibility: 1.5mi
Dew Point: 21°   Wind: 23mph
Humidity: 81%   Direction: 40°NE
Pressure: 29.83"   Gusts: 30mph
Location:  40.71°N, 73.68°W
Report Text: KJFK 262151Z 04020G26KT 1 1/2SM R04R/5500VP6000FT -SN FEW012 BKN028 OVC039 M03/M06 A2983 RMK AO2 PK WND 04026/2142 SFC VIS 1 3/4 SLP099 PRESENT WX DRSN P0000 T10331061
Loading
Personal Weather Stations






























Interactive Weather Map New forecast layout! Learn more

10-Day Weather Forecast

Advertisements
Track Severe Weather on mobile